createdAt,value
2019-02-26T00:01:01.610Z,1.20
2019-02-26T00:03:31.399Z,1.10
2019-02-26T00:06:02.075Z,1.00
2019-02-26T00:08:33.533Z,1.00
2019-02-26T00:11:03.734Z,0.90
2019-02-26T00:13:34.621Z,1.00
2019-02-26T00:16:07.678Z,1.10
2019-02-26T00:18:35.373Z,1.00
2019-02-26T00:21:04.995Z,0.90
2019-02-26T00:23:34.193Z,0.90
2019-02-26T00:26:03.115Z,0.90
2019-02-26T00:28:34.042Z,1.10
2019-02-26T00:31:03.859Z,1.20
2019-02-26T00:33:33.549Z,1.30
2019-02-26T00:36:04.349Z,1.30
2019-02-26T00:38:35.327Z,1.40
2019-02-26T00:41:04.361Z,1.40
2019-02-26T00:43:36.436Z,1.40
2019-02-26T00:46:08.008Z,1.40
2019-02-26T00:48:38.397Z,1.50
2019-02-26T00:51:07.528Z,1.50
2019-02-26T00:53:36.416Z,1.50
2019-02-26T00:56:07.426Z,1.40
2019-02-26T00:58:38.876Z,1.10
2019-02-26T01:01:10.266Z,1.00
2019-02-26T01:03:37.395Z,0.90
2019-02-26T01:06:08.006Z,0.90
2019-02-26T01:08:37.932Z,1.00
2019-02-26T01:11:08.440Z,1.00
2019-02-26T01:13:37.784Z,1.00
2019-02-26T01:16:06.836Z,1.10
2019-02-26T01:18:35.697Z,1.10
2019-02-26T01:21:05.628Z,1.10
2019-02-26T01:23:34.522Z,1.10
2019-02-26T01:26:03.444Z,1.00
2019-02-26T01:28:32.297Z,1.00
2019-02-26T01:31:29.284Z,1.00
2019-02-26T01:33:59.988Z,1.00
2019-02-26T01:36:29.102Z,1.00
2019-02-26T01:38:58.026Z,0.90
2019-02-26T01:41:27.560Z,0.80
2019-02-26T01:43:56.422Z,0.70
2019-02-26T01:46:25.312Z,0.60
2019-02-26T01:48:55.222Z,0.50
2019-02-26T01:51:26.145Z,0.40
2019-02-26T01:53:55.767Z,0.30
2019-02-26T01:56:24.629Z,0.20
2019-02-26T01:58:56.534Z,0.10
2019-02-26T02:01:26.193Z,0.10
2019-02-26T02:03:56.143Z,0.00
2019-02-26T02:06:25.440Z,0.00
2019-02-26T02:08:55.694Z,0.00
2019-02-26T02:11:28.449Z,0.00
2019-02-26T02:13:55.826Z,-0.10
2019-02-26T02:16:26.800Z,-0.20
2019-02-26T02:18:57.583Z,-0.20
2019-02-26T02:21:28.397Z,-0.20
2019-02-26T02:24:12.446Z,-0.20
2019-02-26T02:26:41.089Z,-0.30
2019-02-26T02:29:12.617Z,-0.30
2019-02-26T02:31:41.517Z,-0.40
2019-02-26T02:34:10.553Z,-0.30
2019-02-26T02:36:39.500Z,-0.30
2019-02-26T02:39:12.911Z,-0.30
2019-02-26T02:41:40.061Z,-0.30
2019-02-26T02:44:12.380Z,-0.20
2019-02-26T02:46:42.496Z,0.10
2019-02-26T02:49:13.246Z,0.20
2019-02-26T02:51:42.268Z,0.10
2019-02-26T02:54:12.123Z,0.00
2019-02-26T02:56:44.308Z,-0.10
2019-02-26T02:59:14.116Z,-0.10
2019-02-26T03:01:49.570Z,-0.20
2019-02-26T03:04:19.771Z,-0.20
2019-02-26T03:06:50.167Z,-0.20
2019-02-26T03:09:20.144Z,-0.20
2019-02-26T03:11:50.454Z,-0.20
2019-02-26T03:14:19.725Z,-0.30
2019-02-26T03:16:50.982Z,-0.20
2019-02-26T03:19:19.277Z,-0.20
2019-02-26T03:21:49.620Z,-0.20
2019-02-26T03:24:19.080Z,-0.20
2019-02-26T03:26:48.087Z,-0.20
2019-02-26T03:29:17.568Z,-0.40
2019-02-26T03:31:54.813Z,-0.60
2019-02-26T03:34:21.735Z,-0.60
2019-02-26T03:36:48.361Z,-0.70
2019-02-26T03:39:17.353Z,-0.80
2019-02-26T03:41:48.499Z,-0.80
2019-02-26T03:44:17.371Z,-0.70
2019-02-26T03:46:46.266Z,-0.60
2019-02-26T03:49:15.225Z,-0.50
2019-02-26T03:51:44.153Z,-0.40
2019-02-26T03:54:13.144Z,-0.40
2019-02-26T03:56:42.065Z,-0.40
2019-02-26T03:59:11.706Z,-0.30
2019-02-26T04:01:41.008Z,-0.30
2019-02-26T04:04:10.027Z,-0.30
2019-02-26T04:06:40.957Z,-0.20
2019-02-26T04:09:11.173Z,-0.20
2019-02-26T04:11:44.863Z,-0.20
2019-02-26T04:14:12.592Z,-0.20
2019-02-26T04:16:43.601Z,-0.20
2019-02-26T04:19:13.665Z,-0.30
2019-02-26T04:22:21.032Z,-0.30
2019-02-26T04:24:50.046Z,-0.40
2019-02-26T04:27:50.319Z,-0.50
2019-02-26T04:31:07.345Z,-0.50
2019-02-26T04:34:32.693Z,-0.60
2019-02-26T04:37:38.487Z,-0.60
2019-02-26T04:40:27.206Z,-0.70
2019-02-26T04:43:52.509Z,-0.80
2019-02-26T04:47:06.023Z,-0.80
2019-02-26T04:49:38.357Z,-0.80
2019-02-26T04:52:10.301Z,-0.90
2019-02-26T04:54:39.584Z,-0.90
2019-02-26T04:57:08.003Z,-0.80
2019-02-26T04:59:38.744Z,-0.70
2019-02-26T05:02:07.815Z,-0.80
2019-02-26T05:04:39.454Z,-0.80
2019-02-26T05:07:12.822Z,-0.80
2019-02-26T05:09:39.978Z,-0.80
2019-02-26T05:12:08.996Z,-0.90
2019-02-26T05:14:38.339Z,-0.90
2019-02-26T05:17:07.370Z,-1.00
2019-02-26T05:19:39.263Z,-1.10
2019-02-26T05:22:07.363Z,-1.10
2019-02-26T05:24:37.911Z,-1.00
2019-02-26T05:27:19.749Z,-0.90
2019-02-26T05:29:49.045Z,-0.80
2019-02-26T05:32:18.789Z,-0.70
2019-02-26T05:34:54.869Z,-0.60
2019-02-26T05:37:29.044Z,-0.60
2019-02-26T05:39:57.277Z,-0.50
2019-02-26T05:42:26.361Z,-0.40
2019-02-26T05:44:59.143Z,-0.40
2019-02-26T05:47:26.694Z,-0.30
2019-02-26T05:49:59.621Z,-0.30
2019-02-26T05:52:30.629Z,-0.30
2019-02-26T05:55:00.418Z,-0.20
2019-02-26T05:57:32.621Z,-0.30
2019-02-26T06:00:01.842Z,-0.40
2019-02-26T06:02:39.488Z,-0.40
2019-02-26T06:05:07.752Z,-0.50
2019-02-26T06:07:38.894Z,-0.50
2019-02-26T06:10:09.046Z,-0.40
2019-02-26T06:12:40.508Z,-0.40
2019-02-26T06:15:11.777Z,-0.40
2019-02-26T06:17:45.230Z,-0.40
2019-02-26T06:20:15.791Z,-0.30
2019-02-26T06:22:44.797Z,-0.30
2019-02-26T06:25:19.050Z,-0.20
2019-02-26T06:27:44.740Z,-0.10
2019-02-26T06:30:14.458Z,0.00
2019-02-26T06:32:44.647Z,0.00
2019-02-26T06:35:16.484Z,0.00
2019-02-26T06:37:45.983Z,0.00
2019-02-26T06:40:15.066Z,0.00
2019-02-26T06:42:44.008Z,0.10
2019-02-26T06:45:16.849Z,0.20
2019-02-26T06:47:48.646Z,0.20
2019-02-26T06:50:18.929Z,0.30
2019-02-26T06:52:50.584Z,0.30
2019-02-26T06:55:19.063Z,0.40
2019-02-26T06:57:50.917Z,0.40
2019-02-26T07:00:21.582Z,0.50
2019-02-26T07:02:49.448Z,0.50
2019-02-26T07:05:18.448Z,0.60
2019-02-26T07:07:47.348Z,0.70
2019-02-26T07:10:18.763Z,0.80
2019-02-26T07:12:48.877Z,0.90
2019-02-26T07:15:17.668Z,0.90
2019-02-26T07:17:46.578Z,0.90
2019-02-26T07:20:15.420Z,0.90
2019-02-26T07:22:46.776Z,1.00
2019-02-26T07:25:16.480Z,1.00
2019-02-26T07:27:45.956Z,1.00
2019-02-26T07:30:15.029Z,1.10
2019-02-26T07:32:46.170Z,1.20
2019-02-26T07:35:16.712Z,1.70
2019-02-26T07:37:45.575Z,2.20
2019-02-26T07:40:16.064Z,2.50
2019-02-26T07:42:46.756Z,2.90
2019-02-26T07:45:19.693Z,3.40
2019-02-26T07:47:48.493Z,4.00
2019-02-26T07:50:17.948Z,4.40
2019-02-26T07:52:47.868Z,5.00
2019-02-26T07:55:17.662Z,5.60
2019-02-26T07:57:48.914Z,6.00
2019-02-26T08:00:19.281Z,6.50
2019-02-26T08:02:48.200Z,6.60
2019-02-26T08:05:19.299Z,6.40
2019-02-26T08:07:51.157Z,6.30
2019-02-26T08:10:19.715Z,6.30
2019-02-26T08:12:48.741Z,6.30
2019-02-26T08:15:17.748Z,6.00
2019-02-26T08:17:50.207Z,6.10
2019-02-26T08:20:17.919Z,6.30
2019-02-26T08:22:46.760Z,6.30
2019-02-26T08:25:15.999Z,6.70
2019-02-26T08:27:45.197Z,7.20
2019-02-26T08:30:18.829Z,8.10
2019-02-26T08:32:51.141Z,9.00
2019-02-26T08:35:18.870Z,9.70
2019-02-26T08:37:48.023Z,10.30
2019-02-26T08:40:17.037Z,10.60
2019-02-26T08:42:46.143Z,11.00
2019-02-26T08:45:20.398Z,10.80
2019-02-26T08:47:48.751Z,11.00
2019-02-26T08:50:17.776Z,11.30
2019-02-26T08:52:49.858Z,11.40
2019-02-26T08:55:21.267Z,10.80
2019-02-26T08:57:51.297Z,10.40
2019-02-26T09:00:19.376Z,10.80
2019-02-26T09:02:53.566Z,11.20
2019-02-26T09:05:19.305Z,11.70
2019-02-26T09:07:50.601Z,12.20
2019-02-26T09:10:21.277Z,12.90
2019-02-26T09:12:51.936Z,13.40
2019-02-26T09:15:21.145Z,13.40
2019-02-26T09:17:50.131Z,13.90
2019-02-26T09:20:19.628Z,13.70
2019-02-26T09:22:50.887Z,14.00
2019-02-26T09:25:23.150Z,14.00
2019-02-26T09:27:50.756Z,13.70
2019-02-26T09:30:20.259Z,13.70
2019-02-26T09:32:49.207Z,14.10
2019-02-26T09:35:21.823Z,14.40
2019-02-26T09:37:50.598Z,14.80
2019-02-26T09:40:23.111Z,15.30
2019-02-26T09:42:53.807Z,15.80
2019-02-26T09:45:25.386Z,16.40
2019-02-26T09:47:54.880Z,17.20
2019-02-26T09:50:23.171Z,17.30
2019-02-26T09:52:53.439Z,17.60
2019-02-26T09:55:22.807Z,18.10
2019-02-26T09:57:51.795Z,18.50
2019-02-26T10:00:23.637Z,18.40
2019-02-26T10:02:52.058Z,18.30
2019-02-26T10:05:21.243Z,18.10
2019-02-26T10:07:52.280Z,17.90
2019-02-26T10:10:20.884Z,18.30
2019-02-26T10:12:51.777Z,18.80
2019-02-26T10:15:20.477Z,19.60
2019-02-26T10:17:49.492Z,20.00
2019-02-26T10:20:20.722Z,20.10
2019-02-26T10:22:52.483Z,20.10
2019-02-26T10:25:23.403Z,19.70
2019-02-26T10:27:51.579Z,19.40
2019-02-26T10:30:20.632Z,20.00
2019-02-26T10:32:50.512Z,20.30
2019-02-26T10:35:21.337Z,20.40
2019-02-26T10:37:52.077Z,20.70
2019-02-26T10:40:21.404Z,20.60
2019-02-26T10:42:50.429Z,20.90
2019-02-26T10:45:21.676Z,21.10
2019-02-26T10:47:51.263Z,21.00
2019-02-26T10:50:22.832Z,20.50
2019-02-26T10:52:57.672Z,20.50
2019-02-26T10:55:30.498Z,20.50
2019-02-26T10:57:55.389Z,21.00
2019-02-26T11:00:28.037Z,21.50
2019-02-26T11:02:57.472Z,21.70
2019-02-26T11:05:26.741Z,22.10
2019-02-26T11:07:59.799Z,22.00
2019-02-26T11:10:26.642Z,22.20
2019-02-26T11:12:58.601Z,22.10
2019-02-26T11:15:27.636Z,22.40
2019-02-26T11:17:56.980Z,22.30
2019-02-26T11:20:30.046Z,22.70
2019-02-26T11:22:56.890Z,22.30
2019-02-26T11:25:27.414Z,23.00
2019-02-26T11:27:56.788Z,23.50
2019-02-26T11:30:31.576Z,22.90
2019-02-26T11:33:02.495Z,22.40
2019-02-26T11:35:30.045Z,23.40
2019-02-26T11:37:58.960Z,23.70
2019-02-26T11:40:30.536Z,24.00
2019-02-26T11:43:00.132Z,25.10
2019-02-26T11:45:29.509Z,25.10
2019-02-26T11:48:01.099Z,25.00
2019-02-26T11:50:29.541Z,25.00
2019-02-26T11:52:58.892Z,25.30
2019-02-26T11:55:31.283Z,24.70
2019-02-26T11:57:58.745Z,25.10
2019-02-26T12:00:50.653Z,26.20
2019-02-26T12:03:22.821Z,26.80
2019-02-26T12:05:50.816Z,27.10
2019-02-26T12:08:22.333Z,27.50
2019-02-26T12:10:52.320Z,27.50
2019-02-26T12:13:22.366Z,27.30
2019-02-26T12:15:52.277Z,27.40
2019-02-26T12:18:22.472Z,27.10
2019-02-26T12:20:51.473Z,27.20
2019-02-26T12:23:22.745Z,27.00
2019-02-26T12:25:53.575Z,27.00
2019-02-26T12:28:21.821Z,26.50
2019-02-26T12:30:50.841Z,26.60
2019-02-26T12:33:19.764Z,26.70
2019-02-26T12:35:48.814Z,27.60
2019-02-26T12:38:21.299Z,28.30
2019-02-26T12:40:50.765Z,28.30
2019-02-26T12:43:19.386Z,28.10
2019-02-26T12:45:48.420Z,27.40
2019-02-26T12:48:20.221Z,27.10
2019-02-26T12:50:48.080Z,26.20
2019-02-26T12:53:18.044Z,25.80
2019-02-26T12:55:47.900Z,25.40
2019-02-26T12:58:18.675Z,25.30
2019-02-26T13:00:47.628Z,25.30
2019-02-26T13:03:19.749Z,25.30
2019-02-26T13:05:49.195Z,25.80
2019-02-26T13:08:19.776Z,25.90
2019-02-26T13:10:51.520Z,25.80
2019-02-26T13:13:20.241Z,26.20
2019-02-26T13:15:49.268Z,26.10
2019-02-26T13:18:18.176Z,26.50
2019-02-26T13:20:52.049Z,26.40
2019-02-26T13:23:20.603Z,26.10
2019-02-26T13:25:48.843Z,25.60
2019-02-26T13:28:17.693Z,25.30
2019-02-26T13:30:46.636Z,25.00
2019-02-26T13:33:17.842Z,25.10
2019-02-26T13:35:50.739Z,25.30
2019-02-26T13:38:24.237Z,25.60
2019-02-26T13:40:48.028Z,25.80
2019-02-26T13:43:17.044Z,26.00
2019-02-26T13:45:46.036Z,26.20
2019-02-26T13:48:15.025Z,26.00
2019-02-26T13:50:44.108Z,25.40
2019-02-26T13:53:13.792Z,25.20
2019-02-26T13:55:42.735Z,25.30
2019-02-26T13:58:12.254Z,25.40
2019-02-26T14:00:41.431Z,24.90
2019-02-26T14:03:10.442Z,24.50
2019-02-26T14:05:39.346Z,24.20
2019-02-26T14:08:08.636Z,24.30
2019-02-26T14:10:37.708Z,24.00
2019-02-26T14:13:06.721Z,23.70
2019-02-26T14:15:36.158Z,23.50
2019-02-26T14:18:05.240Z,23.00
2019-02-26T14:20:34.267Z,23.00
2019-02-26T14:23:03.272Z,22.80
2019-02-26T14:25:32.281Z,22.60
2019-02-26T14:28:01.393Z,22.10
2019-02-26T14:30:30.425Z,22.00
2019-02-26T14:32:59.494Z,22.30
2019-02-26T14:35:28.790Z,22.60
2019-02-26T14:37:58.082Z,22.80
2019-02-26T14:40:27.073Z,23.40
2019-02-26T14:42:55.924Z,23.90
2019-02-26T14:45:24.920Z,24.70
2019-02-26T14:47:53.989Z,25.10
2019-02-26T14:50:23.029Z,25.10
2019-02-26T14:52:52.297Z,24.90
2019-02-26T14:55:21.363Z,24.50
2019-02-26T14:57:50.425Z,23.90
2019-02-26T15:00:26.920Z,23.60
2019-02-26T15:02:56.352Z,23.70
2019-02-26T15:05:25.374Z,23.60
2019-02-26T15:07:54.682Z,23.60
2019-02-26T15:10:23.701Z,23.10
2019-02-26T15:12:52.744Z,23.00
2019-02-26T15:15:21.820Z,22.60
2019-02-26T15:17:51.216Z,22.10
2019-02-26T15:20:20.251Z,21.60
2019-02-26T15:22:49.322Z,21.30
2019-02-26T15:25:22.245Z,20.90
2019-02-26T15:27:51.257Z,20.60
2019-02-26T15:30:20.459Z,20.30
2019-02-26T15:32:49.483Z,20.50
2019-02-26T15:35:18.729Z,20.90
2019-02-26T15:37:47.836Z,21.40
2019-02-26T15:40:16.880Z,21.60
2019-02-26T15:42:45.918Z,21.30
2019-02-26T15:45:17.321Z,21.00
2019-02-26T15:47:46.282Z,21.00
2019-02-26T15:50:15.613Z,21.00
2019-02-26T15:52:44.713Z,21.00
2019-02-26T15:55:16.270Z,21.00
2019-02-26T15:57:45.332Z,21.20
2019-02-26T16:00:18.716Z,21.20
2019-02-26T16:02:48.841Z,20.90
2019-02-26T16:05:18.056Z,20.70
2019-02-26T16:07:47.332Z,20.50
2019-02-26T16:10:16.454Z,20.30
2019-02-26T16:12:45.556Z,19.90
2019-02-26T16:15:14.615Z,19.50
2019-02-26T16:17:43.963Z,19.30
2019-02-26T16:20:14.928Z,18.90
2019-02-26T16:22:44.194Z,18.40
2019-02-26T16:25:13.212Z,17.90
2019-02-26T16:27:42.210Z,17.40
2019-02-26T16:30:17.847Z,17.00
2019-02-26T16:32:48.853Z,16.70
2019-02-26T16:35:17.733Z,16.30
2019-02-26T16:37:46.804Z,16.00
2019-02-26T16:40:15.876Z,15.80
2019-02-26T16:42:45.143Z,15.60
2019-02-26T16:45:16.468Z,15.30
2019-02-26T16:47:46.000Z,15.10
2019-02-26T16:50:17.698Z,14.80
2019-02-26T16:52:46.744Z,14.60
2019-02-26T16:55:17.260Z,14.40
2019-02-26T16:57:46.792Z,14.20
2019-02-26T17:00:17.969Z,13.90
2019-02-26T17:02:47.360Z,13.60
2019-02-26T17:05:16.372Z,13.30
2019-02-26T17:07:45.688Z,13.00
2019-02-26T17:10:16.625Z,12.80
2019-02-26T17:12:48.944Z,12.80
2019-02-26T17:15:24.005Z,12.70
2019-02-26T17:17:50.347Z,12.60
2019-02-26T17:20:19.607Z,12.30
2019-02-26T17:22:50.360Z,12.10
2019-02-26T17:25:19.280Z,11.90
2019-02-26T17:27:48.288Z,11.70
2019-02-26T17:30:17.370Z,11.50
2019-02-26T17:32:46.415Z,11.40
2019-02-26T17:35:16.325Z,11.20
2019-02-26T17:37:45.450Z,11.00
2019-02-26T17:40:15.389Z,10.90
2019-02-26T17:42:44.500Z,10.70
2019-02-26T17:45:14.876Z,10.50
2019-02-26T17:47:43.896Z,10.30
2019-02-26T17:50:19.468Z,10.10
2019-02-26T17:52:48.412Z,9.90
2019-02-26T17:55:17.420Z,9.80
2019-02-26T17:57:46.493Z,9.70
2019-02-26T18:00:17.363Z,9.60
2019-02-26T18:02:46.671Z,9.50
2019-02-26T18:05:15.787Z,9.50
2019-02-26T18:07:44.720Z,9.70
2019-02-26T18:10:15.227Z,9.70
2019-02-26T18:12:44.260Z,9.80
2019-02-26T18:15:16.582Z,9.80
2019-02-26T18:17:44.304Z,9.90
2019-02-26T18:20:16.407Z,10.00
2019-02-26T18:22:45.468Z,10.20
2019-02-26T18:25:15.214Z,10.50
2019-02-26T18:27:44.204Z,10.70
2019-02-26T18:30:16.180Z,10.60
2019-02-26T18:32:50.300Z,10.40
2019-02-26T18:35:16.217Z,10.20
2019-02-26T18:37:46.708Z,10.10
2019-02-26T18:40:16.240Z,9.80
2019-02-26T18:42:45.352Z,9.70
2019-02-26T18:45:16.965Z,9.60
2019-02-26T18:47:47.597Z,9.50
2019-02-26T18:50:16.847Z,9.40
2019-02-26T18:52:45.798Z,9.30
2019-02-26T18:55:15.636Z,9.30
2019-02-26T18:57:44.598Z,9.20
2019-02-26T19:00:19.225Z,9.10
2019-02-26T19:02:48.276Z,8.90
2019-02-26T19:05:20.655Z,8.80
2019-02-26T19:07:48.245Z,8.50
2019-02-26T19:10:20.667Z,8.40
2019-02-26T19:12:48.460Z,8.20
2019-02-26T19:15:18.421Z,8.10
2019-02-26T19:17:49.202Z,8.00
2019-02-26T19:20:19.990Z,7.90
2019-02-26T19:22:49.041Z,7.70
2019-02-26T19:25:18.125Z,7.60
2019-02-26T19:27:47.100Z,7.40
2019-02-26T19:30:17.390Z,7.40
2019-02-26T19:32:47.761Z,7.30
2019-02-26T19:35:17.073Z,7.30
2019-02-26T19:37:46.504Z,7.40
2019-02-26T19:40:17.510Z,7.40
2019-02-26T19:42:46.460Z,7.40
2019-02-26T19:45:15.714Z,7.40
2019-02-26T19:47:44.732Z,7.30
2019-02-26T19:50:14.780Z,7.20
2019-02-26T19:52:44.029Z,7.10
2019-02-26T19:55:16.412Z,7.00
2019-02-26T19:57:45.440Z,6.90
2019-02-26T20:00:14.633Z,6.80
2019-02-26T20:02:43.640Z,6.90
2019-02-26T20:05:13.276Z,7.00
2019-02-26T20:07:42.288Z,7.00
2019-02-26T20:10:12.867Z,7.00
2019-02-26T20:12:43.629Z,7.00
2019-02-26T20:15:13.624Z,7.00
2019-02-26T20:17:42.668Z,6.80
2019-02-26T20:20:12.689Z,6.70
2019-02-26T20:22:41.627Z,6.60
2019-02-26T20:25:13.011Z,6.40
2019-02-26T20:27:42.273Z,6.40
2019-02-26T20:30:15.062Z,6.40
2019-02-26T20:32:43.935Z,6.40
2019-02-26T20:35:13.081Z,6.40
2019-02-26T20:37:42.173Z,6.50
2019-02-26T20:40:16.904Z,6.60
2019-02-26T20:42:45.887Z,6.70
2019-02-26T20:45:18.181Z,6.90
2019-02-26T20:47:47.053Z,7.10
2019-02-26T20:50:20.135Z,7.20
2019-02-26T20:52:47.392Z,7.30
2019-02-26T20:55:19.241Z,7.30
2019-02-26T20:57:48.552Z,7.20
2019-02-26T21:00:18.501Z,7.20
2019-02-26T21:02:47.654Z,7.20
2019-02-26T21:05:16.672Z,7.20
2019-02-26T21:07:45.679Z,7.20
2019-02-26T21:10:15.916Z,7.20
2019-02-26T21:12:45.032Z,7.20
2019-02-26T21:15:15.740Z,7.20
2019-02-26T21:17:44.833Z,7.20
2019-02-26T21:20:14.009Z,7.20
2019-02-26T21:22:43.047Z,7.10
2019-02-26T21:25:12.158Z,7.00
2019-02-26T21:27:41.667Z,7.00
2019-02-26T21:30:13.777Z,6.90
2019-02-26T21:32:42.808Z,6.80
2019-02-26T21:35:12.092Z,6.80
2019-02-26T21:37:41.054Z,6.70
2019-02-26T21:40:11.031Z,6.60
2019-02-26T21:42:40.065Z,6.60
2019-02-26T21:45:10.412Z,6.60
2019-02-26T21:47:39.731Z,6.70
2019-02-26T21:50:09.743Z,6.80
2019-02-26T21:52:41.816Z,6.90
2019-02-26T21:55:09.660Z,6.90
2019-02-26T21:57:38.701Z,6.90
2019-02-26T22:00:11.605Z,6.80
2019-02-26T22:02:40.598Z,6.80
2019-02-26T22:05:09.689Z,6.70
2019-02-26T22:07:38.701Z,6.70
2019-02-26T22:10:09.055Z,6.70
2019-02-26T22:12:37.987Z,6.70
2019-02-26T22:15:10.162Z,6.60
2019-02-26T22:17:37.981Z,6.50
2019-02-26T22:20:09.273Z,6.60
2019-02-26T22:22:38.439Z,6.60
2019-02-26T22:25:09.946Z,6.60
2019-02-26T22:27:38.325Z,6.60
2019-02-26T22:30:10.257Z,6.60
2019-02-26T22:32:39.525Z,6.70
2019-02-26T22:35:08.979Z,6.70
2019-02-26T22:37:38.929Z,6.70
2019-02-26T22:40:09.693Z,6.70
2019-02-26T22:42:41.334Z,6.60
2019-02-26T22:45:10.128Z,6.50
2019-02-26T22:47:40.563Z,6.40
2019-02-26T22:50:11.252Z,6.30
2019-02-26T22:52:40.167Z,6.20
2019-02-26T22:55:10.412Z,6.10
2019-02-26T22:57:39.344Z,6.00
2019-02-26T23:00:24.884Z,5.80
2019-02-26T23:02:53.888Z,5.60
2019-02-26T23:05:25.407Z,5.50
2019-02-26T23:07:53.884Z,5.30
2019-02-26T23:10:24.700Z,5.10
2019-02-26T23:12:53.670Z,5.20
2019-02-26T23:15:29.368Z,5.20
2019-02-26T23:17:58.964Z,5.10
2019-02-26T23:20:31.041Z,5.00
2019-02-26T23:23:01.310Z,4.80
2019-02-26T23:25:36.055Z,4.80
2019-02-26T23:28:08.885Z,4.80
2019-02-26T23:30:38.512Z,4.80
2019-02-26T23:33:08.110Z,4.80
2019-02-26T23:35:37.221Z,4.80
2019-02-26T23:38:08.530Z,4.80
2019-02-26T23:40:37.066Z,4.80
2019-02-26T23:43:11.721Z,4.70
2019-02-26T23:45:37.254Z,4.60
2019-02-26T23:48:08.077Z,4.50
2019-02-26T23:50:37.146Z,4.50
2019-02-26T23:53:07.404Z,4.50
2019-02-26T23:55:36.410Z,4.60
2019-02-26T23:58:05.413Z,4.80
